Terminal Aerodrome Forecast
Issued by NWS

Home | Current Version | Previous Version | Text Only | Print | Product List | Glossary On
Versions: 1 2 3 4 5 6 7 8 9 10 11 12 13 14
000
FTUS44 KOUN 231732
TAFCSM
TAF
KCSM 231732Z 2318/2418 05010KT P6SM SCT030
      TEMPO 2318/2320 BKN018
     FM240600 07010KT P6SM BKN025
      TEMPO 2409/2413 4SM BR BKN010=

USA.gov is the U.S. government's official web portal to all federal, state and local government web resources and services.